Time;durP1;ratioP1;P1;durP2;ratioP2;P2;SDS_P1;SDS_P2;PMS_P1;PMS_P2;Temp;Humidity;BMP_temperature;BMP_pressure;BME280_temperature;BME280_humidity;BME280_pressure;Samples;Min_cycle;Max_cycle;Signal;HPM_P1;HPM_P2
2021/11/14 00:01:33;;;;;;;37.23;24.15;;;;;;;2.10;74.94;100415.83;1782720;79;21855;-35
2021/11/14 00:04:01;;;;;;;47.85;24.72;;;;;;;2.13;74.98;100409.91;1780603;79;20952;-34
2021/11/14 00:06:30;;;;;;;48.42;24.90;;;;;;;2.14;74.96;100410.18;1772852;80;21557;-34
2021/11/14 00:08:56;;;;;;;49.05;25.52;;;;;;;2.10;75.14;100403.80;1787645;79;21236;-34
2021/11/14 00:11:23;;;;;;;39.10;23.75;;;;;;;2.07;75.21;100405.70;1779575;79;21057;-34
2021/11/14 00:13:51;;;;;;;41.28;25.85;;;;;;;2.05;75.27;100407.84;1779006;79;21125;-35
2021/11/14 00:16:19;;;;;;;63.17;28.50;;;;;;;2.07;75.26;100414.26;1802897;79;21575;-34
2021/11/14 00:18:46;;;;;;;52.20;28.02;;;;;;;2.09;75.38;100414.22;1806532;79;21013;-34
2021/11/14 00:21:15;;;;;;;36.93;25.15;;;;;;;2.11;75.55;100414.77;1776886;79;20991;-34
2021/11/14 00:23:43;;;;;;;37.98;23.85;;;;;;;2.19;75.64;100422.19;1771658;79;21033;-34
2021/11/14 00:26:10;;;;;;;39.98;24.20;;;;;;;2.32;75.39;100423.99;1793798;79;21134;-34
2021/11/14 00:28:39;;;;;;;35.08;24.72;;;;;;;2.42;75.03;100419.91;1786532;79;21021;-34
2021/11/14 00:31:06;;;;;;;36.70;25.32;;;;;;;2.46;74.86;100418.27;1803975;79;21027;-35
2021/11/14 00:33:34;;;;;;;37.75;24.85;;;;;;;2.49;74.98;100419.03;1797655;79;20997;-34
2021/11/14 00:36:04;;;;;;;35.05;23.02;;;;;;;2.57;74.87;100421.09;1768582;81;20974;-34
2021/11/14 00:38:32;;;;;;;35.08;24.02;;;;;;;2.72;74.67;100418.83;1767297;79;21117;-34
2021/11/14 00:40:59;;;;;;;38.38;25.10;;;;;;;2.86;74.29;100414.41;1778528;79;21024;-34
2021/11/14 00:43:27;;;;;;;38.53;26.33;;;;;;;2.92;74.00;100421.33;1786377;79;21472;-34
2021/11/14 00:45:54;;;;;;;44.38;27.98;;;;;;;2.94;73.96;100417.84;1791160;79;21025;-34
2021/11/14 00:48:21;;;;;;;40.35;25.20;;;;;;;3.02;74.03;100418.55;1804185;79;21507;-35
2021/11/14 00:50:48;;;;;;;42.60;26.25;;;;;;;3.09;73.89;100419.56;1775657;79;21103;-34
2021/11/14 00:53:18;;;;;;;42.35;26.55;;;;;;;3.20;73.82;100417.81;1790145;79;20933;-35
2021/11/14 00:55:44;;;;;;;41.25;28.05;;;;;;;3.31;73.70;100417.17;1794559;79;21430;-34
2021/11/14 00:58:11;;;;;;;41.92;28.02;;;;;;;3.34;73.67;100419.30;1803005;79;21013;-34
2021/11/14 01:00:38;;;;;;;40.52;26.15;;;;;;;3.34;73.74;100419.30;1800207;79;21004;-34
2021/11/14 01:03:07;;;;;;;41.40;26.57;;;;;;;3.39;73.71;100421.89;1784658;79;21774;-35
2021/11/14 01:05:34;;;;;;;43.75;26.33;;;;;;;3.47;73.67;100427.98;1797667;79;20985;-34
2021/11/14 01:08:02;;;;;;;43.75;27.48;;;;;;;3.55;73.63;100423.86;1793575;79;20988;-34
2021/11/14 01:10:34;;;;;;;43.92;27.32;;;;;;;3.58;73.78;100421.42;1807650;79;21009;-34
2021/11/14 01:13:01;;;;;;;44.05;28.25;;;;;;;3.65;73.79;100415.16;1779636;79;21014;-34
2021/11/14 01:15:28;;;;;;;43.42;27.73;;;;;;;3.71;73.66;100419.38;1789063;79;21490;-34
2021/11/14 01:17:55;;;;;;;41.60;27.20;;;;;;;3.75;73.57;100405.64;1795047;79;20949;-35
2021/11/14 01:20:27;;;;;;;42.43;28.35;;;;;;;3.86;73.32;100406.30;1801835;79;20917;-34
2021/11/14 01:22:54;;;;;;;49.00;28.67;;;;;;;3.90;73.24;100411.34;1781699;79;21025;-34
2021/11/14 01:25:21;;;;;;;47.25;28.77;;;;;;;3.92;73.25;100407.84;1778982;79;21521;-34
2021/11/14 01:27:48;;;;;;;40.75;27.25;;;;;;;3.90;73.08;100406.77;1777648;79;21948;-34
2021/11/14 01:30:23;;;;;;;44.95;27.60;;;;;;;3.89;73.12;100403.03;1803981;79;21297;-35
2021/11/14 01:32:50;;;;;;;46.50;29.42;;;;;;;3.93;73.03;100406.19;1796177;79;21009;-35
2021/11/14 01:35:17;;;;;;;44.25;28.38;;;;;;;4.00;73.01;100405.84;1791266;79;21001;-35
2021/11/14 01:37:46;;;;;;;44.50;28.67;;;;;;;3.99;72.99;100403.44;1795490;79;21045;-35
2021/11/14 01:40:24;;;;;;;41.98;27.35;;;;;;;3.98;72.98;100403.97;1789402;79;21131;-35
2021/11/14 01:42:51;;;;;;;41.63;27.20;;;;;;;3.98;72.97;100405.86;1803713;79;21052;-35
2021/11/14 01:45:19;;;;;;;40.05;28.23;;;;;;;3.99;72.97;100396.72;1802877;79;21021;-34
2021/11/14 01:47:47;;;;;;;41.77;28.70;;;;;;;4.03;72.93;100400.42;1784748;79;21089;-35
2021/11/14 01:50:16;;;;;;;42.35;28.80;;;;;;;4.01;72.97;100390.00;1774590;80;21597;-34
2021/11/14 01:52:44;;;;;;;43.40;27.37;;;;;;;3.99;72.95;100398.87;1788964;79;21101;-35
2021/11/14 01:55:11;;;;;;;42.98;26.55;;;;;;;3.99;73.01;100400.21;1787696;79;20922;-35
2021/11/14 01:57:39;;;;;;;39.10;26.53;;;;;;;4.07;73.02;100408.14;1784104;79;20996;-34
2021/11/14 02:00:14;;;;;;;44.18;27.52;;;;;;;4.14;72.91;100404.02;1782054;79;20994;-35
2021/11/14 02:02:40;;;;;;;44.18;27.30;;;;;;;4.19;72.92;100403.95;1779245;79;21028;-34
2021/11/14 02:05:08;;;;;;;39.50;27.50;;;;;;;4.18;72.86;100401.00;1797107;79;21165;-34
2021/11/14 02:07:35;;;;;;;41.08;26.25;;;;;;;4.19;72.85;100399.11;1800900;79;20981;-35
2021/11/14 02:10:05;;;;;;;42.38;27.48;;;;;;;4.24;72.81;100396.36;1780734;79;21037;-34
2021/11/14 02:12:34;;;;;;;42.65;27.80;;;;;;;4.30;72.71;100388.48;1775658;79;21050;-34
2021/11/14 02:15:00;;;;;;;45.20;28.90;;;;;;;4.30;72.73;100397.88;1790435;79;21065;-35
2021/11/14 02:17:30;;;;;;;43.20;28.07;;;;;;;4.29;72.77;100393.05;1787836;79;20967;-34
2021/11/14 02:19:56;;;;;;;39.63;27.05;;;;;;;4.32;72.87;100393.00;1793002;79;21530;-35
2021/11/14 02:22:23;;;;;;;45.15;27.58;;;;;;;4.30;72.61;100393.85;1796919;79;20946;-35
2021/11/14 02:24:50;;;;;;;44.10;28.60;;;;;;;4.28;72.58;100402.73;1784271;80;21065;-34
2021/11/14 02:27:16;;;;;;;46.58;28.95;;;;;;;4.26;72.81;100398.22;1793813;79;21543;-35
2021/11/14 02:29:43;;;;;;;43.83;27.40;;;;;;;4.23;72.79;100396.09;1804219;79;21917;-34
2021/11/14 02:32:12;;;;;;;43.52;27.37;;;;;;;4.14;72.95;100404.02;1785685;79;21006;-34
2021/11/14 02:34:39;;;;;;;39.85;26.60;;;;;;;4.08;73.13;100406.52;1773124;79;20930;-34
2021/11/14 02:37:06;;;;;;;43.08;27.35;;;;;;;4.08;73.31;100420.47;1800539;79;21012;-35
2021/11/14 02:39:33;;;;;;;45.70;29.75;;;;;;;4.05;73.46;100408.98;1804862;79;21048;-35
2021/11/14 02:42:00;;;;;;;47.13;27.17;;;;;;;4.02;73.63;100409.58;1809213;79;21084;-35
2021/11/14 02:44:27;;;;;;;42.27;27.05;;;;;;;4.02;73.73;100413.03;1804338;79;20997;-35
2021/11/14 02:46:54;;;;;;;43.75;27.82;;;;;;;4.04;73.69;100407.39;1802149;79;21065;-34
2021/11/14 02:49:21;;;;;;;43.68;28.92;;;;;;;4.08;73.81;100403.03;1779520;79;21001;-35
2021/11/14 02:51:47;;;;;;;44.85;29.45;;;;;;;4.09;73.87;100411.34;1797659;79;21061;-35
2021/11/14 02:54:14;;;;;;;43.25;27.45;;;;;;;4.10;73.79;100412.94;1778696;79;21047;-34
2021/11/14 02:56:41;;;;;;;43.60;28.32;;;;;;;4.06;73.75;100405.22;1776562;79;20989;-35
2021/11/14 02:59:07;;;;;;;44.77;28.65;;;;;;;4.08;73.73;100413.77;1780238;79;21021;-35
2021/11/14 03:01:41;;;;;;;46.40;29.57;;;;;;;4.10;73.73;100402.20;1799066;79;21041;-35
2021/11/14 03:04:18;;;;;;;46.33;30.12;;;;;;;4.10;73.67;100404.89;1779120;79;21661;-35
2021/11/14 03:06:47;;;;;;;42.30;27.45;;;;;;;4.06;73.69;100407.37;1796768;79;21090;-35
2021/11/14 03:09:13;;;;;;;46.80;29.75;;;;;;;4.04;73.78;100407.39;1751968;81;21024;-35
2021/11/14 03:11:40;;;;;;;44.38;29.90;;;;;;;4.03;73.81;100405.78;1743351;81;20938;-34
2021/11/14 03:14:07;;;;;;;45.55;29.82;;;;;;;4.01;73.90;100407.98;1737622;82;21013;-35
2021/11/14 03:16:35;;;;;;;42.90;28.90;;;;;;;3.95;74.06;100405.91;1734766;81;21030;-35
2021/11/14 03:19:03;;;;;;;46.28;29.32;;;;;;;3.95;74.16;100407.25;1796376;79;21914;-35
2021/11/14 03:21:30;;;;;;;44.70;30.30;;;;;;;4.00;74.21;100407.72;1794813;79;20922;-35
2021/11/14 03:23:56;;;;;;;48.23;30.97;;;;;;;4.02;74.27;100406.89;1800744;79;21465;-34
2021/11/14 03:26:25;;;;;;;44.45;29.20;;;;;;;4.02;74.28;100404.22;1804682;79;21013;-35
2021/11/14 03:28:51;;;;;;;40.67;27.10;;;;;;;4.02;74.19;100399.62;1775148;79;21435;-34
2021/11/14 03:31:18;;;;;;;43.25;27.75;;;;;;;4.03;74.12;100391.83;1799833;79;21143;-34
2021/11/14 03:33:45;;;;;;;44.98;30.20;;;;;;;4.04;74.07;100389.95;1771934;79;20950;-34
2021/11/14 03:36:15;;;;;;;44.40;29.37;;;;;;;3.99;74.20;100396.72;1792222;79;21021;-35
2021/11/14 03:38:51;;;;;;;46.42;28.83;;;;;;;3.93;74.30;100387.95;1800361;79;21581;-35
2021/11/14 03:41:22;;;;;;;42.20;27.60;;;;;;;3.94;74.46;100386.33;1769056;81;21002;-35
2021/11/14 03:43:49;;;;;;;45.17;29.23;;;;;;;3.99;74.35;100384.66;1777137;79;21127;-34
2021/11/14 03:46:17;;;;;;;47.95;29.63;;;;;;;3.94;74.46;100385.52;1782090;79;21014;-34
2021/11/14 03:48:46;;;;;;;46.35;28.45;;;;;;;3.88;74.59;100382.11;1773721;79;21068;-35
2021/11/14 03:51:13;;;;;;;44.95;29.18;;;;;;;3.89;74.73;100385.05;1785857;79;28135;-35
2021/11/14 03:53:40;;;;;;;46.42;29.37;;;;;;;3.91;74.78;100378.87;1778483;79;21488;-35
2021/11/14 03:56:07;;;;;;;45.80;28.80;;;;;;;3.89;74.82;100389.08;1781166;79;22358;-35
2021/11/14 03:58:35;;;;;;;43.02;27.52;;;;;;;3.86;74.87;100378.14;1779166;79;21342;-35
2021/11/14 04:01:05;;;;;;;42.45;28.75;;;;;;;3.86;74.86;100381.62;1773927;79;21449;-35
2021/11/14 04:03:32;;;;;;;42.88;28.80;;;;;;;3.89;74.83;100386.39;1802723;79;20945;-35
2021/11/14 04:05:59;;;;;;;42.95;29.07;;;;;;;3.89;74.90;100386.39;1771955;79;21006;-35
2021/11/14 04:08:26;;;;;;;45.08;29.45;;;;;;;3.87;74.98;100387.22;1766903;79;21146;-35
2021/11/14 04:10:57;;;;;;;43.08;28.15;;;;;;;3.85;75.00;100392.09;1766618;81;21516;-35
2021/11/14 04:13:23;;;;;;;;;;;;;;;3.88;74.96;100398.20;1769058;79;21063;-35
2021/11/14 04:15:49;;;;;;;44.27;29.37;;;;;;;3.94;74.82;100401.08;1781556;79;20534;-35
2021/11/14 04:18:16;;;;;;;48.58;30.27;;;;;;;3.84;75.09;100393.17;1802312;79;21443;-35
2021/11/14 04:20:45;;;;;;;45.08;27.70;;;;;;;3.84;75.02;100403.90;1771066;79;20997;-34
2021/11/14 04:23:12;;;;;;;42.40;28.35;;;;;;;3.81;75.05;100404.48;1797632;79;21618;-35
2021/11/14 04:25:40;;;;;;;45.92;29.65;;;;;;;3.87;75.00;100402.54;1804317;79;21002;-34
2021/11/14 04:28:09;;;;;;;49.10;31.15;;;;;;;3.87;75.00;100403.31;1799078;79;20997;-35
2021/11/14 04:30:35;;;;;;;44.30;29.32;;;;;;;3.86;75.02;100401.73;1791556;80;21025;-35
2021/11/14 04:33:02;;;;;;;45.38;27.60;;;;;;;3.88;75.09;100402.77;1753571;81;21894;-35
2021/11/14 04:35:29;;;;;;;45.05;29.00;;;;;;;3.92;74.96;100395.20;1756446;81;21077;-35
2021/11/14 04:37:55;;;;;;;42.20;28.52;;;;;;;3.98;74.78;100392.44;1751339;81;20986;-35
2021/11/14 04:40:24;;;;;;;47.93;30.20;;;;;;;3.98;74.65;100393.78;1768087;81;21033;-35
2021/11/14 04:42:51;;;;;;;46.20;28.73;;;;;;;3.93;74.62;100392.77;1757251;81;21030;-34
2021/11/14 04:45:18;;;;;;;46.75;28.67;;;;;;;3.90;74.53;100393.91;1708696;84;21116;-35
2021/11/14 04:47:44;;;;;;;46.92;28.95;;;;;;;3.89;74.47;100391.77;1754089;81;20974;-34
2021/11/14 04:50:14;;;;;;;49.15;30.70;;;;;;;3.86;74.45;100394.23;1748868;80;21012;-34
2021/11/14 04:52:40;;;;;;;38.08;23.45;;;;;;;3.82;74.49;100395.91;1722646;82;21607;-35
2021/11/14 04:55:08;;;;;;;48.60;29.25;;;;;;;3.77;74.57;100399.45;1774135;80;21068;-34
2021/11/14 04:57:36;;;;;;;41.33;28.00;;;;;;;3.79;74.60;100401.29;1738705;82;21149;-34
2021/11/14 05:00:10;;;;;;;48.92;29.60;;;;;;;3.80;74.53;100404.23;1774603;80;20910;-34
2021/11/14 05:02:37;;;;;;;45.25;29.07;;;;;;;3.75;74.55;100411.00;1738967;82;21012;-34
2021/11/14 05:05:05;;;;;;;43.02;28.47;;;;;;;3.72;74.61;100409.45;1773484;80;20930;-34
2021/11/14 05:07:32;;;;;;;45.30;28.77;;;;;;;3.74;74.59;100412.08;1766190;80;21041;-35
2021/11/14 05:09:58;;;;;;;43.98;29.23;;;;;;;3.77;74.58;100408.84;1764569;80;21267;-35
2021/11/14 05:12:25;;;;;;;48.13;30.70;;;;;;;3.78;74.63;100409.07;1773734;80;20973;-35
2021/11/14 05:14:51;;;;;;;44.60;28.05;;;;;;;3.77;74.57;100409.38;1762236;80;21606;-34
2021/11/14 05:17:18;;;;;;;43.60;28.40;;;;;;;3.77;74.51;100415.55;1757265;80;20929;-35
2021/11/14 05:19:46;;;;;;;49.40;30.17;;;;;;;3.83;74.41;100414.91;1770978;80;20976;-34
2021/11/14 05:22:12;;;;;;;46.20;30.45;;;;;;;3.84;74.26;100415.17;1769978;80;21123;-35
2021/11/14 05:24:39;;;;;;;47.15;29.45;;;;;;;3.82;74.28;100416.82;1754961;80;21495;-35
2021/11/14 05:27:07;;;;;;;45.73;27.93;;;;;;;3.83;74.15;100418.39;1750020;80;21039;-35
2021/11/14 05:29:34;;;;;;;41.48;27.58;;;;;;;3.87;74.08;100420.75;1762621;80;21827;-35
2021/11/14 05:32:01;;;;;;;44.08;29.30;;;;;;;3.93;73.99;100425.50;1774833;80;21035;-35
2021/11/14 05:34:27;;;;;;;48.10;30.65;;;;;;;3.91;73.90;100421.80;1760797;80;21120;-35
2021/11/14 05:36:53;;;;;;;44.85;28.75;;;;;;;3.88;73.86;100418.33;1745257;80;21526;-34
2021/11/14 05:39:20;;;;;;;45.00;29.05;;;;;;;3.88;73.90;100429.05;1753491;80;20992;-34
2021/11/14 05:41:46;;;;;;;42.15;28.42;;;;;;;3.93;73.89;100424.97;1749151;80;21022;-35
2021/11/14 05:44:14;;;;;;;44.95;29.35;;;;;;;3.97;73.72;100429.20;1750559;80;21039;-34
2021/11/14 05:46:41;;;;;;;47.65;30.37;;;;;;;3.93;73.74;100433.02;1753405;80;21114;-34
2021/11/14 05:49:09;;;;;;;41.63;27.98;;;;;;;3.91;73.81;100444.59;1759319;79;20969;-35
2021/11/14 05:51:37;;;;;;;40.92;27.90;;;;;;;3.88;73.88;100449.17;1796817;79;21053;-35
2021/11/14 05:54:04;;;;;;;51.35;31.05;;;;;;;3.90;73.74;100451.04;1783929;79;20993;-34
2021/11/14 05:56:32;;;;;;;45.17;30.05;;;;;;;3.87;73.86;100453.51;1780510;79;21508;-35
2021/11/14 05:59:09;;;;;;;44.00;28.45;;;;;;;3.80;73.94;100451.16;1785651;79;21139;-35
2021/11/14 06:01:31;;;;;;;41.05;27.95;;;;;;;3.80;73.95;100454.39;1768794;79;21033;-34
2021/11/14 06:07:37;;;;;;;48.78;30.55;;;;;;;3.78;74.04;100453.33;1802158;78;27014;-34
2021/11/14 06:10:06;;;;;;;46.63;28.05;;;;;;;3.79;74.10;100455.47;1801717;79;21146;-35
2021/11/14 06:12:34;;;;;;;46.35;29.48;;;;;;;3.78;74.14;100449.84;1801471;79;20911;-34
2021/11/14 06:15:01;;;;;;;43.70;29.23;;;;;;;3.82;74.06;100453.03;1788875;79;20916;-35
2021/11/14 06:17:28;;;;;;;46.15;31.82;;;;;;;3.83;74.04;100455.94;1796631;78;20917;-34
2021/11/14 06:19:56;;;;;;;46.77;28.32;;;;;;;3.83;74.12;100448.44;1789889;79;20975;-34
2021/11/14 06:22:22;;;;;;;44.48;29.20;;;;;;;3.84;74.14;100449.50;1802276;79;21144;-35
2021/11/14 06:24:49;;;;;;;43.00;28.80;;;;;;;3.88;74.00;100450.52;1798968;79;21494;-34
2021/11/14 06:27:16;;;;;;;46.13;30.62;;;;;;;3.89;73.99;100458.83;1802601;79;20987;-35
2021/11/14 06:29:42;;;;;;;47.00;29.95;;;;;;;3.90;74.14;100459.09;1797670;79;20930;-35
2021/11/14 06:32:09;;;;;;;44.55;28.47;;;;;;;3.96;74.16;100461.70;1792276;78;21029;-35
2021/11/14 06:34:36;;;;;;;42.13;28.95;;;;;;;4.05;74.02;100457.28;1790072;79;21142;-35
2021/11/14 06:37:05;;;;;;;44.23;29.98;;;;;;;4.13;73.77;100464.14;1802390;79;21007;-34
2021/11/14 06:39:32;;;;;;;46.70;29.92;;;;;;;4.17;73.57;100463.01;1797636;79;21013;-35
2021/11/14 06:41:59;;;;;;;47.65;29.48;;;;;;;4.22;73.68;100466.96;1790988;79;20989;-35
2021/11/14 06:44:26;;;;;;;45.95;28.50;;;;;;;4.31;73.48;100461.19;1793467;79;21032;-35
2021/11/14 06:46:55;;;;;;;44.60;28.85;;;;;;;4.43;73.20;100466.94;1802624;79;21884;-35
2021/11/14 06:49:22;;;;;;;48.45;31.70;;;;;;;4.54;72.93;100468.38;1802818;79;20997;-34
2021/11/14 06:51:51;;;;;;;47.53;31.37;;;;;;;4.58;72.50;100467.25;1800199;79;21118;-35
2021/11/14 06:54:17;;;;;;;47.30;30.75;;;;;;;4.58;72.45;100468.05;1786101;78;20997;-35
2021/11/14 06:56:45;;;;;;;46.90;29.10;;;;;;;4.63;72.35;100472.00;1779664;79;21005;-34
2021/11/14 06:59:12;;;;;;;47.85;29.45;;;;;;;4.68;72.09;100461.72;1788562;79;21539;-35
2021/11/14 07:01:38;;;;;;;48.23;29.90;;;;;;;4.75;71.94;100454.87;1792973;79;21756;-34
2021/11/14 07:04:05;;;;;;;47.93;30.25;;;;;;;4.77;71.71;100459.95;1774962;79;21570;-35
2021/11/14 07:06:32;;;;;;;45.78;30.37;;;;;;;4.75;71.75;100458.89;1777521;80;20981;-35
2021/11/14 07:08:59;;;;;;;47.70;29.85;;;;;;;4.72;71.66;100468.89;1766822;79;21041;-35
2021/11/14 07:11:26;;;;;;;43.92;28.65;;;;;;;4.71;71.68;100471.33;1780520;80;21127;-35
2021/11/14 07:13:53;;;;;;;45.08;30.20;;;;;;;4.74;71.58;100469.38;1767439;78;21020;-34
2021/11/14 07:16:19;;;;;;;47.83;30.02;;;;;;;4.77;71.62;100464.78;1772126;80;20948;-34
2021/11/14 07:18:46;;;;;;;52.78;31.42;;;;;;;4.77;71.61;100468.81;1778677;79;20930;-34
2021/11/14 07:21:12;;;;;;;49.80;29.48;;;;;;;4.78;71.59;100462.36;1786915;80;21013;-34
2021/11/14 07:23:39;;;;;;;46.95;29.65;;;;;;;4.85;71.51;100462.50;1790077;80;21310;-34
2021/11/14 07:26:06;;;;;;;45.55;29.60;;;;;;;4.89;71.37;100458.16;1779442;80;20938;-34
2021/11/14 07:28:32;;;;;;;47.00;31.05;;;;;;;4.91;71.25;100466.70;1791473;79;20899;-34
2021/11/14 07:31:02;;;;;;;54.65;32.28;;;;;;;4.89;71.45;100456.81;1785601;80;21092;-34
2021/11/14 07:33:29;;;;;;;49.33;30.05;;;;;;;4.90;71.33;100457.84;1781659;79;21586;-34
2021/11/14 07:35:56;;;;;;;51.05;30.10;;;;;;;4.91;71.28;100463.48;1769303;80;21130;-34
2021/11/14 07:38:22;;;;;;;48.13;31.30;;;;;;;4.96;71.31;100462.59;1767155;80;21515;-34
2021/11/14 07:40:49;;;;;;;50.33;30.92;;;;;;;5.04;71.37;100468.63;1772488;80;21060;-34
2021/11/14 07:43:17;;;;;;;53.35;32.55;;;;;;;5.09;71.28;100469.88;1782016;79;21113;-34
2021/11/14 07:45:43;;;;;;;50.65;31.23;;;;;;;5.12;70.99;100466.08;1710896;83;21617;-34
2021/11/14 07:48:11;;;;;;;47.00;29.40;;;;;;;5.14;70.82;100465.75;1702094;83;21226;-35
2021/11/14 07:50:38;;;;;;;49.50;32.15;;;;;;;5.16;70.69;100463.04;1705712;81;21555;-34
2021/11/14 07:53:06;;;;;;;51.42;30.43;;;;;;;5.16;70.57;100466.27;1723549;83;21069;-34
2021/11/14 07:55:32;;;;;;;50.92;31.25;;;;;;;5.13;70.79;100461.50;1729306;82;20938;-34
2021/11/14 07:58:04;;;;;;;50.58;30.57;;;;;;;5.11;70.88;100464.47;1731586;81;20969;-34
2021/11/14 08:00:30;;;;;;;44.80;29.02;;;;;;;5.12;71.15;100455.32;1741071;82;21166;-34
2021/11/14 08:02:57;;;;;;;60.52;30.50;;;;;;;5.18;71.13;100458.15;1742893;82;21032;-34
2021/11/14 08:05:24;;;;;;;45.30;30.75;;;;;;;5.28;71.00;100457.16;1733122;81;21551;-34
2021/11/14 08:07:51;;;;;;;50.20;32.42;;;;;;;5.31;70.89;100452.55;1737020;81;21522;-34
2021/11/14 08:10:18;;;;;;;47.08;31.35;;;;;;;5.29;70.92;100454.73;1738153;81;21067;-34
2021/11/14 08:12:46;;;;;;;56.45;29.75;;;;;;;5.28;70.99;100453.13;1728228;82;21226;-35
2021/11/14 08:15:13;;;;;;;48.45;31.25;;;;;;;5.29;71.13;100456.63;1730563;82;22042;-35
2021/11/14 08:17:41;;;;;;;48.55;30.55;;;;;;;5.39;71.09;100452.40;1738140;81;21533;-34
2021/11/14 08:20:10;;;;;;;50.43;33.10;;;;;;;5.45;70.96;100456.05;1723425;82;21021;-35
2021/11/14 08:22:37;;;;;;;50.60;32.13;;;;;;;5.49;70.82;100451.66;1727886;81;21297;-34
2021/11/14 08:25:06;;;;;;;45.85;30.35;;;;;;;5.13;70.66;100401.02;1727269;82;21868;-35
2021/11/14 08:27:32;;;;;;;49.03;30.20;;;;;;;5.46;70.72;100446.09;1717222;82;20937;-34
2021/11/14 08:30:00;;;;;;;52.88;31.33;;;;;;;5.58;70.66;100455.24;1733528;82;21012;-35
2021/11/14 08:32:26;;;;;;;48.70;32.17;;;;;;;5.60;70.57;100451.72;1736555;81;21013;-35
2021/11/14 08:34:53;;;;;;;45.65;31.37;;;;;;;5.62;70.63;100446.02;1724828;82;21080;-34
2021/11/14 08:37:19;;;;;;;49.80;31.15;;;;;;;5.64;70.52;100440.60;1725215;82;21218;-35
2021/11/14 08:39:48;;;;;;;48.33;29.37;;;;;;;5.72;70.35;100435.59;1734788;82;20988;-34
2021/11/14 08:42:15;;;;;;;46.00;29.60;;;;;;;5.87;70.09;100433.97;1731666;82;20993;-35
2021/11/14 08:44:42;;;;;;;47.17;30.77;;;;;;;5.98;69.81;100424.59;1740341;82;21057;-35
2021/11/14 08:47:09;;;;;;;46.55;31.90;;;;;;;6.05;69.68;100431.71;1743608;82;21626;-34
2021/11/14 08:49:35;;;;;;;48.55;30.77;;;;;;;6.14;69.34;100425.85;1734724;81;21164;-34
2021/11/14 08:52:03;;;;;;;54.40;31.35;;;;;;;6.21;69.00;100425.41;1722423;81;20954;-34
2021/11/14 08:54:33;;;;;;;41.08;24.65;;;;;;;6.26;68.81;100422.61;1750979;81;21092;-35
2021/11/14 08:57:00;;;;;;;46.13;30.70;;;;;;;6.34;68.64;100417.28;1739981;81;21506;-35
2021/11/14 08:59:28;;;;;;;49.25;32.05;;;;;;;6.42;68.30;100419.81;1751843;81;21037;-35
2021/11/14 09:01:55;;;;;;;49.90;32.53;;;;;;;6.44;68.25;100418.39;1743099;81;21138;-35
2021/11/14 09:04:21;;;;;;;53.70;33.92;;;;;;;6.46;68.41;100414.05;1727167;81;21540;-35
2021/11/14 09:06:48;;;;;;;53.78;34.13;;;;;;;6.50;68.28;100410.98;1720631;82;21487;-35
2021/11/14 09:09:15;;;;;;;48.28;31.00;;;;;;;6.53;68.14;100400.38;1718873;82;21551;-35
2021/11/14 09:11:44;;;;;;;47.65;31.77;;;;;;;6.57;68.04;100395.20;1719567;82;21053;-34
2021/11/14 09:14:10;;;;;;;50.55;32.30;;;;;;;6.66;68.01;100402.78;1732515;82;21121;-35
2021/11/14 09:16:37;;;;;;;48.10;33.40;;;;;;;6.73;67.87;100401.02;1747029;81;21016;-34
2021/11/14 09:19:06;;;;;;;46.65;32.95;;;;;;;6.77;67.68;100409.52;1748589;82;20977;-34
2021/11/14 09:21:37;;;;;;;46.85;31.45;;;;;;;6.80;67.47;100408.09;1748701;82;21041;-34
2021/11/14 09:24:06;;;;;;;45.83;29.77;;;;;;;6.81;67.39;100411.03;1730319;82;21546;-35
2021/11/14 09:26:33;;;;;;;43.55;32.38;;;;;;;6.85;67.10;100409.31;1738871;80;21232;-34
2021/11/14 09:29:00;;;;;;;44.77;31.10;;;;;;;6.90;66.95;100411.33;1747949;82;21318;-34
2021/11/14 09:31:26;;;;;;;52.67;34.18;;;;;;;6.91;66.97;100411.58;1749074;82;20989;-34
2021/11/14 09:33:54;;;;;;;53.75;34.10;;;;;;;6.95;66.89;100410.40;1746839;82;21021;-34
2021/11/14 09:36:21;;;;;;;51.35;32.42;;;;;;;6.96;67.01;100407.95;1732291;82;21068;-35
2021/11/14 09:38:48;;;;;;;45.03;29.92;;;;;;;6.97;66.85;100410.90;1719229;83;21100;-35
2021/11/14 09:41:15;;;;;;;49.65;31.95;;;;;;;6.98;66.92;100398.98;1719092;82;21621;-34
2021/11/14 09:43:42;;;;;;;50.17;32.35;;;;;;;7.09;66.73;100398.17;1723525;82;21685;-34
2021/11/14 09:46:09;;;;;;;51.55;32.00;;;;;;;7.14;66.44;100397.48;1718994;83;21582;-35
2021/11/14 09:48:36;;;;;;;51.25;33.83;;;;;;;7.17;66.35;100399.55;1719146;83;21061;-35
2021/11/14 09:51:02;;;;;;;44.25;31.40;;;;;;;7.15;66.21;100396.94;1723993;81;21123;-35
2021/11/14 09:53:33;;;;;;;52.08;34.23;;;;;;;7.12;66.27;100398.34;1740944;81;21032;-34
2021/11/14 09:56:01;;;;;;;49.08;32.13;;;;;;;7.12;66.29;100392.94;1739172;82;21020;-35
2021/11/14 09:58:28;;;;;;;45.78;30.37;;;;;;;7.13;66.17;100393.73;1771570;79;21020;-34
2021/11/14 10:00:55;;;;;;;48.70;31.75;;;;;;;7.17;66.19;100390.66;1767762;79;21024;-35
2021/11/14 10:03:22;;;;;;;51.40;33.30;;;;;;;7.20;66.08;100388.16;1786485;78;21134;-34
2021/11/14 10:05:50;;;;;;;47.23;32.93;;;;;;;7.18;66.03;100384.97;1802352;79;21060;-35
2021/11/14 10:08:19;;;;;;;54.55;33.70;;;;;;;7.14;66.11;100382.66;1794382;79;21010;-35
2021/11/14 10:10:56;;;;;;;50.03;34.03;;;;;;;7.12;66.24;100384.05;1794140;79;21012;-34
2021/11/14 10:13:32;;;;;;;50.75;32.58;;;;;;;7.08;66.32;100383.89;1776581;79;21037;-34
2021/11/14 10:16:13;;;;;;;53.08;33.88;;;;;;;7.06;66.56;100382.08;1796665;77;21079;-35
2021/11/14 10:18:51;;;;;;;48.92;32.17;;;;;;;7.08;66.55;100381.19;1800382;79;21762;-34
2021/11/14 10:21:18;;;;;;;48.87;33.42;;;;;;;7.06;66.47;100376.69;1807625;79;20977;-35
2021/11/14 10:23:45;;;;;;;59.27;34.35;;;;;;;7.01;66.64;100375.47;1808209;79;21575;-35
2021/11/14 10:26:12;;;;;;;53.23;34.40;;;;;;;6.97;66.75;100377.20;1767275;79;21046;-35
2021/11/14 10:28:41;;;;;;;52.43;33.60;;;;;;;6.97;66.78;100369.11;1807515;79;21998;-34
2021/11/14 10:31:08;;;;;;;53.05;34.50;;;;;;;6.68;66.87;100323.00;1802319;79;20979;-35
2021/11/14 10:33:36;;;;;;;53.23;35.30;;;;;;;7.08;66.82;100378.50;1808260;79;21355;-34
2021/11/14 10:36:04;;;;;;;53.83;35.08;;;;;;;7.09;66.70;100374.70;1786333;78;21067;-34
2021/11/14 10:38:35;;;;;;;55.00;35.35;;;;;;;7.09;66.76;100376.05;1778243;79;21092;-34
2021/11/14 10:41:09;;;;;;;50.83;33.95;;;;;;;7.08;66.77;100373.10;1805793;79;21768;-34
2021/11/14 10:43:38;;;;;;;48.50;33.48;;;;;;;7.13;66.86;100377.56;1786036;79;20993;-38
2021/11/14 10:46:06;;;;;;;47.53;33.53;;;;;;;7.22;66.74;100373.79;1740589;81;21489;-37
2021/11/14 10:48:33;;;;;;;49.20;33.35;;;;;;;7.27;66.69;100372.30;1741174;82;21104;-38
2021/11/14 10:51:02;;;;;;;57.67;36.53;;;;;;;7.33;66.60;100375.11;1698114;82;21095;-38
2021/11/14 10:53:32;;;;;;;56.40;36.70;;;;;;;7.37;66.45;100373.36;1741037;82;21960;-37
2021/11/14 10:56:04;;;;;;;49.93;33.75;;;;;;;7.41;66.30;100368.13;1739342;82;20978;-37
2021/11/14 10:58:32;;;;;;;54.23;33.73;;;;;;;7.41;66.28;100369.48;1747776;82;21053;-37
2021/11/14 11:01:03;;;;;;;51.50;33.58;;;;;;;7.48;66.24;100373.08;1735042;80;21005;-37
2021/11/14 11:03:47;;;;;;;49.53;34.50;;;;;;;7.54;65.96;100367.78;1735309;82;21591;-38
2021/11/14 11:06:27;;;;;;;48.55;34.95;;;;;;;7.53;66.04;100375.08;1718509;82;21961;-37
2021/11/14 11:09:04;;;;;;;50.57;34.87;;;;;;;7.57;66.10;100363.09;1704012;82;20985;-37
2021/11/14 11:11:42;;;;;;;58.02;38.38;;;;;;;7.63;65.93;100359.14;1708167;82;20966;-37
2021/11/14 11:14:10;;;;;;;55.28;34.85;;;;;;;7.67;65.62;100362.25;1705130;82;21480;-37
2021/11/14 11:16:37;;;;;;;50.17;33.88;;;;;;;7.36;65.43;100307.03;1703389;84;21096;-37
2021/11/14 11:19:11;;;;;;;51.63;34.73;;;;;;;7.73;65.45;100362.89;1703175;84;21163;-37
2021/11/14 11:21:41;;;;;;;50.33;34.08;;;;;;;7.78;65.29;100359.49;1726659;81;20957;-37
2021/11/14 11:24:19;;;;;;;61.77;35.70;;;;;;;7.74;65.36;100354.49;1701467;82;21095;-37